Terminal Aerodrome Forecast
Issued by NWS

Home | Current Version | Previous Version | Graphics & Text | Print | Product List | Glossary On
Versions: 1 2 3 4 5 6 7 8 9 10 11 12 13 14 15 16 17 18
200
FTUS43 KUNR 191700 AAA
TAFGCC
TAF AMD
KGCC 191700Z 1917/2012 35015G25KT P6SM SCT150
     FM200200 VRB05KT P6SM SCT150
     FM201100 17023G33KT P6SM BKN250=

USA.gov is the U.S. government's official web portal to all federal, state and local government web resources and services.